Time;durP1;ratioP1;P1;durP2;ratioP2;P2;SDS_P1;SDS_P2;PMS_P1;PMS_P2;Temp;Humidity;BMP_temperature;BMP_pressure;BME280_temperature;BME280_humidity;BME280_pressure;Samples;Min_cycle;Max_cycle;Signal;HPM_P1;HPM_P2
2022/06/30 04:08:36;;;;;;;4.65;3.83;;;;;;;23.11;65.91;100047.16;5503471;28;20458;-86
2022/06/30 04:11:39;;;;;;;4.20;3.80;;;;;;;23.17;66.09;100040.59;5325268;33;33874;-86
2022/06/30 04:14:42;;;;;;;4.05;3.65;;;;;;;23.25;65.94;100048.31;5324979;33;34710;-86
2022/06/30 04:17:45;;;;;;;4.30;3.90;;;;;;;23.31;66.06;100052.72;5324944;33;34822;-86
2022/06/30 04:20:48;;;;;;;5.22;3.97;;;;;;;23.38;65.10;100043.41;5330961;33;34184;-85
2022/06/30 04:23:51;;;;;;;4.47;3.70;;;;;;;23.49;64.97;100048.66;5326917;33;34732;-85
2022/06/30 04:26:53;;;;;;;6.40;4.00;;;;;;;23.62;64.43;100050.03;5332707;33;33884;-85
2022/06/30 04:29:56;;;;;;;7.32;3.80;;;;;;;23.65;63.79;100052.22;5321222;33;32573;-85
2022/06/30 04:33:01;;;;;;;5.07;3.70;;;;;;;23.70;62.69;100045.97;5333513;33;34447;-85
2022/06/30 04:36:04;;;;;;;7.93;4.03;;;;;;;23.82;62.09;100045.69;5334246;33;35145;-85
2022/06/30 04:39:07;;;;;;;3.72;3.33;;;;;;;23.92;60.75;100037.44;5333437;33;33834;-85
2022/06/30 04:42:10;;;;;;;4.70;3.67;;;;;;;24.01;60.09;100045.97;5326783;33;32625;-85
2022/06/30 04:45:12;;;;;;;3.92;3.53;;;;;;;24.19;59.57;100046.25;5336670;33;35525;-89
2022/06/30 04:48:15;;;;;;;3.95;3.20;;;;;;;24.29;58.63;100042.66;5336472;33;33920;-89
2022/06/30 04:51:18;;;;;;;5.78;3.90;;;;;;;24.43;58.32;100048.44;5334959;33;34002;-89
2022/06/30 04:54:21;;;;;;;6.03;3.70;;;;;;;24.51;57.82;100042.38;5333773;33;33901;-87
2022/06/30 04:57:25;;;;;;;4.82;3.65;;;;;;;24.67;58.13;100041.22;5333762;33;34396;-86
2022/06/30 05:00:28;;;;;;;4.87;3.60;;;;;;;24.77;56.70;100043.13;5333625;33;34019;-85
2022/06/30 05:03:31;;;;;;;4.62;3.50;;;;;;;24.92;56.94;100036.72;5337887;33;34495;-86
2022/06/30 05:06:34;;;;;;;4.53;3.45;;;;;;;24.99;56.38;100037.25;5334637;33;35446;-86
2022/06/30 05:09:37;;;;;;;5.72;3.65;;;;;;;25.09;56.16;100036.38;5348967;33;36024;-86
2022/06/30 05:12:40;;;;;;;6.20;3.70;;;;;;;25.23;54.05;100031.94;5357371;33;33822;-86
2022/06/30 05:15:45;;;;;;;4.97;3.45;;;;;;;25.28;54.17;100044.88;5355085;33;34635;-86
2022/06/30 05:18:48;;;;;;;5.15;4.07;;;;;;;25.38;54.17;100038.47;5350415;33;34172;-86
2022/06/30 05:21:50;;;;;;;6.00;3.97;;;;;;;25.51;54.92;100040.63;5350768;33;34826;-85
2022/06/30 05:28:15;;;;;;;5.60;4.10;;;;;;;25.74;53.54;100028.88;5349683;33;34120;-85
2022/06/30 05:31:18;;;;;;;7.55;3.75;;;;;;;25.90;53.63;100031.53;5350511;33;34557;-85
2022/06/30 05:34:20;;;;;;;4.47;3.47;;;;;;;26.14;52.50;100026.91;5351978;33;35332;-85
2022/06/30 05:37:24;;;;;;;6.93;3.80;;;;;;;26.27;53.05;100027.34;5353239;33;34239;-85
2022/06/30 05:40:29;;;;;;;5.97;3.42;;;;;;;26.38;51.90;100034.41;5353664;33;34529;-85
2022/06/30 05:43:31;;;;;;;5.03;3.35;;;;;;;26.58;50.93;100039.75;5352025;33;35046;-85
2022/06/30 05:46:36;;;;;;;4.40;3.33;;;;;;;26.62;50.36;100042.75;5340177;33;32939;-85
2022/06/30 05:49:39;;;;;;;3.55;3.20;;;;;;;26.72;48.06;100037.13;5352199;33;35664;-85
2022/06/30 05:52:42;;;;;;;4.30;3.17;;;;;;;26.84;47.08;100039.47;5354402;33;34287;-85
2022/06/30 05:55:46;;;;;;;4.50;3.75;;;;;;;26.94;46.02;100039.34;5351759;33;34983;-85
2022/06/30 05:58:49;;;;;;;3.80;3.22;;;;;;;27.04;45.60;100041.97;5352517;33;34282;-85
2022/06/30 06:01:52;;;;;;;8.02;3.25;;;;;;;27.23;45.33;100036.53;5354663;33;34166;-85
2022/06/30 06:04:55;;;;;;;4.35;2.80;;;;;;;27.33;45.08;100033.59;5357021;33;34475;-85
2022/06/30 06:08:07;;;;;;;2.95;2.72;;;;;;;27.54;42.63;100033.31;5354021;33;34081;-85
2022/06/30 06:11:10;;;;;;;7.30;3.10;;;;;;;27.76;42.93;100041.00;5354836;33;34249;-85
2022/06/30 06:14:13;;;;;;;3.83;3.45;;;;;;;27.83;42.88;100037.88;5353525;33;35110;-85
2022/06/30 06:17:16;;;;;;;4.65;3.05;;;;;;;27.83;42.29;100041.47;5331370;33;32147;-85
2022/06/30 06:20:19;;;;;;;5.25;2.87;;;;;;;28.07;41.48;100046.06;5337454;33;35012;-85
2022/06/30 06:23:22;;;;;;;4.65;2.83;;;;;;;28.11;41.25;100034.09;5355452;33;34258;-85
2022/06/30 06:26:25;;;;;;;8.90;3.10;;;;;;;28.22;40.31;100029.19;5354827;33;35399;-85
2022/06/30 06:29:29;;;;;;;4.40;2.62;;;;;;;28.43;39.95;100030.50;5338063;33;34055;-85
2022/06/30 06:32:32;;;;;;;2.83;2.53;;;;;;;28.50;39.95;100035.62;5338864;33;33626;-85
2022/06/30 06:35:35;;;;;;;3.90;2.83;;;;;;;28.63;39.49;100037.56;5333833;33;34735;-85
2022/06/30 06:38:37;;;;;;;3.58;2.85;;;;;;;28.90;38.41;100031.22;5343824;33;34838;-85
2022/06/30 06:41:40;;;;;;;3.12;2.80;;;;;;;29.06;37.47;100030.94;5349118;33;34165;-85
2022/06/30 06:44:43;;;;;;;2.78;2.55;;;;;;;29.19;37.75;100032.84;5334638;33;32452;-87
2022/06/30 06:47:46;;;;;;;2.80;2.50;;;;;;;29.42;37.40;100025.41;5349344;33;34355;-89
2022/06/30 06:50:50;;;;;;;2.55;2.12;;;;;;;29.54;36.60;100022.94;5339968;33;35385;-89
2022/06/30 06:53:57;;;;;;;2.53;2.17;;;;;;;29.79;34.44;100027.06;5336123;33;33814;-86
2022/06/30 06:56:59;;;;;;;3.17;2.40;;;;;;;29.88;33.68;100020.75;5343085;33;35476;-85
2022/06/30 07:00:08;;;;;;;4.82;2.47;;;;;;;30.01;34.40;100025.41;5349562;33;33949;-86
2022/06/30 07:03:12;;;;;;;2.33;2.13;;;;;;;30.13;33.81;100022.06;5344759;33;34784;-86
2022/06/30 07:06:15;;;;;;;2.80;2.45;;;;;;;30.38;33.41;100018.62;5347246;33;34102;-87
2022/06/30 07:09:17;;;;;;;2.92;2.40;;;;;;;30.49;32.34;100002.53;5328252;33;33714;-86
2022/06/30 07:12:20;;;;;;;2.95;2.35;;;;;;;30.58;32.93;100008.94;5334973;33;34766;-85
2022/06/30 07:15:29;;;;;;;4.07;2.15;;;;;;;30.82;32.96;100010.50;5341508;33;34263;-86
2022/06/30 07:18:32;;;;;;;3.35;2.35;;;;;;;30.83;31.52;100012.97;5335515;33;34859;-86
2022/06/30 07:21:35;;;;;;;2.65;2.30;;;;;;;30.95;32.05;100007.63;5339126;33;33772;-86
2022/06/30 07:24:38;;;;;;;4.50;2.22;;;;;;;31.11;31.79;100005.19;5337401;33;34427;-86
2022/06/30 07:27:40;;;;;;;2.70;2.50;;;;;;;31.06;31.59;99998.94;5334776;33;34580;-86
2022/06/30 07:30:52;;;;;;;3.87;2.25;;;;;;;31.29;30.83;100000.44;5337669;33;33769;-86
2022/06/30 07:33:54;;;;;;;3.40;2.30;;;;;;;31.57;30.68;99998.22;5343527;33;34196;-85
2022/06/30 07:36:58;;;;;;;2.75;2.47;;;;;;;31.63;29.98;100005.25;5345828;33;33603;-86
2022/06/30 07:40:00;;;;;;;3.33;2.42;;;;;;;31.68;29.45;99998.72;5340060;33;34592;-86
2022/06/30 07:43:11;;;;;;;3.08;2.80;;;;;;;31.79;29.17;99996.38;5339531;33;33940;-85
2022/06/30 07:46:14;;;;;;;2.75;2.40;;;;;;;31.76;28.80;99997.84;5333961;33;32132;-86
2022/06/30 07:49:20;;;;;;;5.35;2.55;;;;;;;31.78;29.14;99998.34;5320542;33;32852;-86
2022/06/30 07:52:23;;;;;;;2.40;2.20;;;;;;;31.73;29.37;99994.91;5333183;33;34215;-85
2022/06/30 07:55:26;;;;;;;2.37;2.17;;;;;;;31.94;29.45;99989.50;5330742;33;34002;-86
2022/06/30 07:58:30;;;;;;;3.17;2.58;;;;;;;32.10;29.40;99984.25;5333467;33;34310;-86
2022/06/30 08:01:35;;;;;;;4.82;2.50;;;;;;;32.27;29.05;99981.41;5333110;33;34161;-86
2022/06/30 08:04:41;;;;;;;2.78;2.47;;;;;;;32.22;29.71;99970.44;5320868;33;33725;-86
2022/06/30 08:07:43;;;;;;;2.78;2.58;;;;;;;32.43;28.83;99971.34;5331480;33;33990;-86
2022/06/30 08:10:47;;;;;;;5.60;2.30;;;;;;;32.64;28.86;99973.41;5333702;33;34601;-86
2022/06/30 08:13:49;;;;;;;3.05;2.30;;;;;;;32.73;29.42;99976.94;5317533;33;32365;-85
2022/06/30 08:16:53;;;;;;;3.00;2.08;;;;;;;33.00;28.28;99986.03;5332557;33;34317;-85
2022/06/30 08:19:56;;;;;;;2.50;2.30;;;;;;;32.91;28.07;99977.69;5333646;33;34685;-85
2022/06/30 08:22:59;;;;;;;4.55;2.37;;;;;;;33.06;28.05;99981.88;5344155;33;33670;-87
2022/06/30 08:26:04;;;;;;;3.35;2.28;;;;;;;33.10;27.64;99974.47;5332697;33;32374;-86
2022/06/30 08:29:08;;;;;;;5.28;2.30;;;;;;;33.19;27.23;99976.03;5328398;33;34129;-86
2022/06/30 08:32:11;;;;;;;2.75;2.47;;;;;;;33.19;27.20;99975.22;5341418;33;35014;-86
2022/06/30 08:35:20;;;;;;;5.00;2.35;;;;;;;33.13;26.92;99963.44;5335245;33;34236;-86
2022/06/30 08:38:43;;;;;;;2.95;2.42;;;;;;;33.04;27.48;99971.06;5339115;33;33786;-86
2022/06/30 08:45:20;;;;;;;3.33;2.35;;;;;;;33.41;27.21;99965.69;5341513;33;34312;-85
2022/06/30 08:48:25;;;;;;;2.75;2.20;;;;;;;33.53;26.95;99965.78;5337942;33;34363;-86
2022/06/30 08:51:29;;;;;;;3.78;2.17;;;;;;;33.46;26.37;99967.44;5321809;33;32910;-86
2022/06/30 08:54:36;;;;;;;3.25;2.20;;;;;;;33.49;26.40;99969.56;5341978;33;34798;-85
2022/06/30 08:57:41;;;;;;;2.30;2.10;;;;;;;33.68;25.98;99967.12;5347124;33;35168;-85
2022/06/30 09:00:45;;;;;;;3.17;2.10;;;;;;;33.91;25.68;99964.75;5343017;33;35254;-86
2022/06/30 09:03:49;;;;;;;2.70;2.05;;;;;;;33.96;25.99;99960.91;5327349;33;35655;-85
2022/06/30 09:06:54;;;;;;;2.30;2.10;;;;;;;33.97;26.74;99957.78;5334508;33;34517;-85
2022/06/30 09:09:58;;;;;;;2.47;2.20;;;;;;;33.95;25.67;99951.72;5340670;33;34210;-86
2022/06/30 09:13:03;;;;;;;3.10;2.08;;;;;;;33.82;25.78;99950.88;5340404;33;34360;-85
2022/06/30 09:16:06;;;;;;;2.95;2.10;;;;;;;33.98;26.00;99948.22;5346638;33;33953;-86
2022/06/30 09:19:12;;;;;;;6.05;2.20;;;;;;;34.39;24.70;99954.03;5334532;33;32197;-86
2022/06/30 09:22:17;;;;;;;3.05;2.03;;;;;;;34.64;24.26;99944.50;5345444;33;35409;-86
2022/06/30 09:25:31;;;;;;;2.05;1.95;;;;;;;34.61;24.57;99947.19;5346174;33;35349;-86
2022/06/30 09:28:51;;;;;;;2.85;1.87;;;;;;;34.65;24.54;99954.50;5344817;33;33655;-86
2022/06/30 09:32:21;;;;;;;2.85;1.80;;;;;;;34.71;24.38;99953.09;5339163;33;34127;-88
2022/06/30 09:35:26;;;;;;;2.12;1.92;;;;;;;34.80;23.32;99950.19;5346459;33;33664;-87
2022/06/30 09:38:30;;;;;;;3.85;2.17;;;;;;;34.86;22.88;99945.16;5338755;33;32500;-86
2022/06/30 09:41:41;;;;;;;4.55;2.42;;;;;;;34.77;23.54;99959.28;5325384;33;32523;-86
2022/06/30 09:44:54;;;;;;;2.80;2.60;;;;;;;34.91;23.95;99951.34;5346642;33;34276;-86
2022/06/30 09:48:07;;;;;;;3.75;1.80;;;;;;;35.11;23.34;99935.59;5333889;33;34467;-86
2022/06/30 09:51:13;;;;;;;4.53;2.83;;;;;;;35.32;23.47;99945.78;5337736;33;34171;-86
2022/06/30 09:54:24;;;;;;;3.55;2.10;;;;;;;35.07;23.67;99928.25;5338433;33;34227;-86
2022/06/30 09:57:30;;;;;;;1.80;1.70;;;;;;;35.39;23.25;99929.19;5341342;33;32960;-86
2022/06/30 10:00:46;;;;;;;2.20;2.00;;;;;;;35.53;21.96;99934.38;5347064;33;34587;-85
2022/06/30 10:03:59;;;;;;;3.95;1.80;;;;;;;35.70;21.16;99914.50;5332897;33;35283;-85
2022/06/30 10:07:03;;;;;;;3.10;1.90;;;;;;;35.62;21.82;99944.28;5340684;33;33925;-85
2022/06/30 10:10:17;;;;;;;2.12;1.92;;;;;;;35.57;21.99;99932.53;5343324;33;34240;-85
2022/06/30 10:13:22;;;;;;;4.10;2.28;;;;;;;35.75;22.06;99930.25;5357494;33;34752;-85
2022/06/30 10:16:31;;;;;;;2.45;1.85;;;;;;;35.84;22.06;99923.28;5322505;33;35567;-86
2022/06/30 10:19:52;;;;;;;2.20;2.00;;;;;;;35.89;22.08;99916.59;5341009;33;33580;-86
2022/06/30 10:22:56;;;;;;;3.17;2.12;;;;;;;35.74;22.18;99912.59;5343366;33;34251;-86
2022/06/30 10:25:59;;;;;;;2.15;1.95;;;;;;;35.90;22.17;99904.22;5336631;33;35410;-89
2022/06/30 10:29:04;;;;;;;2.00;1.80;;;;;;;36.05;21.78;99908.25;5338335;33;35578;-90
2022/06/30 10:32:30;;;;;;;3.47;1.73;;;;;;;36.23;21.37;99903.09;5327785;33;33628;-87
2022/06/30 10:35:41;;;;;;;5.70;1.70;;;;;;;36.69;21.12;99923.06;5349873;33;34318;-86
2022/06/30 10:38:53;;;;;;;2.05;1.58;;;;;;;36.86;20.55;99905.81;5324470;33;33318;-85
2022/06/30 10:41:55;;;;;;;2.72;1.62;;;;;;;37.15;19.66;99893.22;5346040;33;34703;-86
2022/06/30 10:44:58;;;;;;;5.78;1.60;;;;;;;37.49;19.25;99898.31;5320826;33;32348;-87
2022/06/30 10:48:22;;;;;;;2.05;1.87;;;;;;;37.73;19.42;99895.16;5326026;33;32677;-85
2022/06/30 10:51:26;;;;;;;2.90;2.03;;;;;;;38.07;19.37;99890.59;5340087;33;35633;-86
2022/06/30 10:54:31;;;;;;;3.55;1.50;;;;;;;38.10;19.17;99889.03;5320661;33;32772;-87
2022/06/30 10:58:03;;;;;;;2.97;1.60;;;;;;;37.98;18.52;99883.59;5331934;33;33800;-86
2022/06/30 11:01:11;;;;;;;1.70;1.60;;;;;;;38.80;18.16;99884.91;5339141;33;34366;-87
2022/06/30 11:04:14;;;;;;;2.47;1.58;;;;;;;38.82;17.78;99884.50;5336643;33;34063;-86
2022/06/30 11:07:23;;;;;;;1.77;1.65;;;;;;;39.03;17.00;99890.47;5338742;33;33158;-85
2022/06/30 11:10:25;;;;;;;2.78;2.40;;;;;;;39.19;17.09;99874.16;5341526;33;34215;-85
2022/06/30 11:13:29;;;;;;;1.80;1.70;;;;;;;39.28;17.48;99876.66;5349981;33;35293;-85
2022/06/30 11:16:35;;;;;;;2.15;1.85;;;;;;;39.79;17.47;99864.00;5347497;33;33743;-84
2022/06/30 11:19:44;;;;;;;3.17;2.12;;;;;;;40.22;17.92;99867.16;5333020;33;33740;-84
2022/06/30 11:22:48;;;;;;;2.97;1.98;;;;;;;40.58;17.29;99856.94;5346413;33;34008;-85
2022/06/30 11:29:15;;;;;;;2.12;1.98;;;;;;;41.63;15.72;99862.66;5340841;33;33767;-85
2022/06/30 11:32:27;;;;;;;2.72;1.73;;;;;;;41.91;15.06;99863.91;5345595;33;33937;-86
2022/06/30 11:35:31;;;;;;;2.47;1.67;;;;;;;43.09;14.41;99846.72;5325019;33;32558;-85
2022/06/30 11:38:34;;;;;;;2.62;1.95;;;;;;;44.17;14.10;99835.44;5342441;33;34621;-85
2022/06/30 11:45:01;;;;;;;2.22;1.90;;;;;;;45.36;13.29;99834.88;5332496;33;34005;-85
2022/06/30 11:48:04;;;;;;;1.75;1.65;;;;;;;44.83;12.81;99837.22;5333128;33;33797;-84
2022/06/30 11:51:11;;;;;;;1.50;1.40;;;;;;;45.07;12.42;99838.09;5318024;33;33456;-85
2022/06/30 11:54:15;;;;;;;3.45;1.50;;;;;;;45.43;12.38;99827.06;5334633;33;33213;-85
2022/06/30 11:57:20;;;;;;;1.73;1.60;;;;;;;46.15;12.01;99823.84;5337992;33;33077;-85
2022/06/30 12:00:30;;;;;;;1.50;1.40;;;;;;;46.14;12.31;99819.41;5329624;33;32140;-85
2022/06/30 12:03:37;;;;;;;1.65;1.35;;;;;;;46.25;11.71;99813.53;5332735;33;33034;-85
2022/06/30 12:06:41;;;;;;;1.73;1.50;;;;;;;46.76;11.40;99801.97;5357130;33;34364;-85
2022/06/30 12:09:48;;;;;;;3.00;1.40;;;;;;;46.70;11.61;99813.06;5333723;33;33621;-86
2022/06/30 12:12:51;;;;;;;2.28;1.40;;;;;;;46.57;11.93;99812.91;5341153;33;34339;-85
2022/06/30 12:15:55;;;;;;;1.70;1.60;;;;;;;47.17;11.06;99801.47;5340102;33;34080;-85
2022/06/30 12:18:58;;;;;;;1.33;1.20;;;;;;;47.16;11.27;99797.03;5334110;33;34350;-86
2022/06/30 12:22:04;;;;;;;1.75;1.27;;;;;;;46.66;11.27;99802.97;5343967;33;34791;-86
2022/06/30 12:25:08;;;;;;;1.35;1.23;;;;;;;46.96;10.76;99797.03;5339701;33;32870;-86
2022/06/30 12:28:12;;;;;;;1.52;1.42;;;;;;;47.62;10.85;99785.75;5316661;33;32941;-85
2022/06/30 12:31:31;;;;;;;1.55;1.45;;;;;;;47.89;10.13;99789.16;5342831;33;33990;-85
2022/06/30 12:35:06;;;;;;;1.40;1.30;;;;;;;48.40;9.73;99787.81;5343907;33;34543;-89
2022/06/30 12:38:13;;;;;;;2.65;1.23;;;;;;;48.08;9.50;99783.75;5329085;33;34811;-85
2022/06/30 12:41:22;;;;;;;2.05;1.52;;;;;;;48.75;9.98;99794.53;5315645;33;32450;-85
2022/06/30 12:44:38;;;;;;;2.42;1.23;;;;;;;49.05;9.40;99787.50;5332065;33;34062;-85
2022/06/30 12:47:45;;;;;;;1.25;1.15;;;;;;;48.76;8.87;99787.56;5345839;33;34760;-85
2022/06/30 12:51:24;;;;;;;3.15;1.17;;;;;;;49.18;8.62;99781.81;5339645;33;35118;-84
2022/06/30 12:54:34;;;;;;;1.27;1.15;;;;;;;49.46;8.61;99777.22;5326214;33;33266;-85
2022/06/30 12:57:38;;;;;;;1.40;1.10;;;;;;;49.75;8.12;99779.94;5337736;33;33763;-85
2022/06/30 13:00:45;;;;;;;2.45;1.10;;;;;;;50.13;7.83;99782.69;5325512;33;33204;-84
2022/06/30 13:04:10;;;;;;;2.45;1.40;;;;;;;49.90;7.86;99777.38;5344823;33;32750;-84
2022/06/30 13:07:18;;;;;;;1.87;1.33;;;;;;;50.33;7.89;99773.00;5337899;33;158076;-82
2022/06/30 13:11:04;;;;;;;1.12;1.00;;;;;;;50.48;7.52;99756.87;5352628;33;34661;-89
2022/06/30 13:13:49;;;;;;;1.45;1.02;;;;;;;50.64;7.87;99761.62;5340223;33;35336;-85
2022/06/30 13:17:02;;;;;;;1.30;1.20;;;;;;;49.17;8.02;99751.59;5355615;33;35446;-85
2022/06/30 13:20:06;;;;;;;1.77;1.10;;;;;;;49.54;7.77;99766.34;5340489;33;32872;-84
2022/06/30 13:23:09;;;;;;;2.05;1.30;;;;;;;50.04;7.81;99761.78;5336669;33;35014;-85
2022/06/30 13:26:27;;;;;;;2.55;1.02;;;;;;;50.01;7.96;99754.91;5337883;33;34425;-85
2022/06/30 13:29:35;;;;;;;2.17;1.10;;;;;;;50.46;8.23;99752.88;5338018;33;34534;-84
2022/06/30 13:32:38;;;;;;;1.35;1.12;;;;;;;50.52;8.10;99756.72;5321023;33;32955;-85
2022/06/30 13:35:41;;;;;;;1.33;1.23;;;;;;;50.74;7.87;99753.88;5333661;33;34748;-85
2022/06/30 13:38:47;;;;;;;1.27;1.17;;;;;;;50.24;7.37;99761.47;5346845;33;35135;-85
2022/06/30 13:42:09;;;;;;;2.53;1.33;;;;;;;49.87;7.81;99761.12;5337342;33;34712;-85
2022/06/30 13:45:12;;;;;;;1.23;1.20;;;;;;;49.99;8.00;99757.44;5324266;33;32192;-85
2022/06/30 13:48:16;;;;;;;1.20;1.20;;;;;;;49.80;7.90;99753.59;5349882;33;33634;-85
2022/06/30 13:51:20;;;;;;;1.60;1.30;;;;;;;49.99;7.91;99746.00;5352559;33;34445;-84
2022/06/30 13:54:22;;;;;;;0.93;0.90;;;;;;;50.18;8.27;99746.16;5351403;33;34256;-85
2022/06/30 13:57:26;;;;;;;2.47;1.00;;;;;;;49.28;8.97;99739.84;5350134;33;33780;-84
2022/06/30 14:00:31;;;;;;;3.25;1.35;;;;;;;48.81;9.09;99755.56;5348621;33;34943;-85
2022/06/30 14:03:34;;;;;;;3.85;1.52;;;;;;;49.12;9.03;99747.28;5358862;33;35375;-85
2022/06/30 14:06:37;;;;;;;3.53;1.40;;;;;;;48.08;9.57;99749.50;5342859;33;36091;-85
2022/06/30 14:09:41;;;;;;;1.27;1.20;;;;;;;46.62;10.58;99753.81;5321642;33;32930;-85
2022/06/30 14:12:44;;;;;;;3.67;1.60;;;;;;;44.96;12.60;99738.00;5334283;33;33009;-85
2022/06/30 14:15:47;;;;;;;3.65;1.87;;;;;;;43.55;13.39;99737.13;5351337;33;33848;-85
2022/06/30 14:18:57;;;;;;;3.03;1.42;;;;;;;43.03;13.50;99741.53;5354765;33;34891;-85
2022/06/30 14:22:00;;;;;;;1.80;1.53;;;;;;;42.03;14.44;99760.88;5354088;33;35031;-84
2022/06/30 14:25:05;;;;;;;3.25;1.55;;;;;;;41.57;14.30;99747.56;5343823;33;32567;-85
2022/06/30 14:28:08;;;;;;;3.28;1.77;;;;;;;41.18;14.97;99749.13;5350223;33;34359;-88
2022/06/30 14:31:11;;;;;;;1.80;1.70;;;;;;;40.33;15.67;99744.75;5340437;33;33946;-89
2022/06/30 14:34:14;;;;;;;3.15;1.80;;;;;;;40.13;16.24;99741.41;5338772;33;34951;-88
2022/06/30 14:37:17;;;;;;;2.10;1.90;;;;;;;39.58;17.26;99737.75;5336870;33;34250;-85
2022/06/30 14:40:26;;;;;;;3.72;2.03;;;;;;;39.12;17.77;99735.31;5321952;33;32087;-87
2022/06/30 14:43:29;;;;;;;4.03;2.17;;;;;;;39.06;18.12;99736.84;5337096;33;36357;-86
2022/06/30 14:46:36;;;;;;;3.80;1.87;;;;;;;39.02;17.64;99731.16;5344677;33;34916;-86
2022/06/30 14:49:39;;;;;;;2.97;1.58;;;;;;;38.47;18.15;99730.94;5316959;33;34477;-87
2022/06/30 14:52:44;;;;;;;1.90;1.80;;;;;;;38.52;18.55;99731.38;5313573;33;33779;-86
2022/06/30 14:55:46;;;;;;;3.05;2.30;;;;;;;38.36;18.88;99733.56;5326468;33;33536;-86
2022/06/30 14:58:49;;;;;;;2.30;2.10;;;;;;;38.23;19.33;99723.72;5329030;33;33577;-86
2022/06/30 15:01:55;;;;;;;3.90;2.00;;;;;;;37.93;19.97;99730.09;5329172;33;32858;-87
2022/06/30 15:04:58;;;;;;;1.92;1.83;;;;;;;37.84;19.10;99732.38;5316306;33;33448;-86
2022/06/30 15:08:01;;;;;;;3.67;2.00;;;;;;;37.63;19.28;99716.00;5321604;33;33769;-86
2022/06/30 15:11:04;;;;;;;2.20;2.10;;;;;;;37.51;20.10;99727.44;5326189;33;34064;-86
2022/06/30 15:14:06;;;;;;;2.87;2.08;;;;;;;37.31;20.71;99721.06;5326403;33;34559;-87
2022/06/30 15:17:10;;;;;;;4.03;2.00;;;;;;;37.44;20.84;99722.47;5312719;33;32400;-87
2022/06/30 15:20:13;;;;;;;3.22;1.77;;;;;;;37.42;20.11;99716.44;5326258;33;34246;-87
2022/06/30 15:26:39;;;;;;;3.25;2.92;;;;;;;37.18;20.73;99718.44;5326023;33;34013;-87
2022/06/30 15:29:44;;;;;;;3.12;2.60;;;;;;;37.14;21.20;99711.94;5326557;33;34486;-87
2022/06/30 15:32:47;;;;;;;4.15;2.15;;;;;;;37.00;21.65;99714.47;5328545;33;34702;-87
2022/06/30 15:35:50;;;;;;;2.83;2.35;;;;;;;36.97;22.21;99715.19;5328364;33;35311;-87
2022/06/30 15:38:53;;;;;;;4.53;2.42;;;;;;;36.88;22.48;99717.44;5334244;33;33608;-86
2022/06/30 15:41:59;;;;;;;3.90;2.28;;;;;;;36.51;23.07;99703.87;5336645;33;34616;-87
2022/06/30 15:45:02;;;;;;;2.47;2.22;;;;;;;36.55;23.03;99710.38;5342413;33;34499;-87
2022/06/30 15:48:05;;;;;;;3.40;2.20;;;;;;;36.43;23.51;99699.28;5344933;33;34463;-87
2022/06/30 15:51:08;;;;;;;3.37;2.55;;;;;;;36.44;23.60;99706.50;5334743;33;34481;-87
2022/06/30 15:54:11;;;;;;;3.25;2.40;;;;;;;36.34;23.71;99696.72;5332946;33;34063;-86
2022/06/30 15:57:14;;;;;;;4.15;2.50;;;;;;;36.25;24.09;99707.31;5327123;33;34396;-87
